sensor_id;sensor_type;location;lat;lon;timestamp;pressure;altitude;pressure_sealevel;temperature;humidity
83152;BME280;73381;58.502;8.624;2023-12-22T00:02:17;96398.63;;;0.55;54.89
83152;BME280;73381;58.502;8.624;2023-12-22T00:05:21;96393.00;;;0.59;54.15
83152;BME280;73381;58.502;8.624;2023-12-22T00:08:25;96391.53;;;0.57;54.92
83152;BME280;73381;58.502;8.624;2023-12-22T00:11:29;96379.84;;;0.61;54.37
83152;BME280;73381;58.502;8.624;2023-12-22T00:14:33;96412.72;;;0.52;56.90
83152;BME280;73381;58.502;8.624;2023-12-22T00:17:37;96397.47;;;0.49;54.49
83152;BME280;73381;58.502;8.624;2023-12-22T00:20:43;96361.78;;;0.43;54.80
83152;BME280;73381;58.502;8.624;2023-12-22T00:23:45;96382.41;;;0.53;55.24
83152;BME280;73381;58.502;8.624;2023-12-22T00:26:49;96400.41;;;0.54;54.39
83152;BME280;73381;58.502;8.624;2023-12-22T00:29:55;96377.13;;;0.37;54.69
83152;BME280;73381;58.502;8.624;2023-12-22T00:33:00;96405.19;;;0.41;55.81
83152;BME280;73381;58.502;8.624;2023-12-22T00:36:06;96426.84;;;0.50;54.10
83152;BME280;73381;58.502;8.624;2023-12-22T00:39:11;96432.53;;;0.53;54.43
83152;BME280;73381;58.502;8.624;2023-12-22T00:42:15;96424.41;;;0.48;55.63
83152;BME280;73381;58.502;8.624;2023-12-22T00:45:20;96438.34;;;0.47;54.71
83152;BME280;73381;58.502;8.624;2023-12-22T00:48:25;96403.81;;;0.21;55.65
83152;BME280;73381;58.502;8.624;2023-12-22T00:51:29;96385.38;;;0.06;55.01
83152;BME280;73381;58.502;8.624;2023-12-22T00:54:32;96448.41;;;0.50;54.82
83152;BME280;73381;58.502;8.624;2023-12-22T00:57:36;96413.66;;;0.17;54.98
83152;BME280;73381;58.502;8.624;2023-12-22T01:00:40;96462.72;;;0.54;54.05
83152;BME280;73381;58.502;8.624;2023-12-22T01:03:47;96373.06;;;0.08;54.47
83152;BME280;73381;58.502;8.624;2023-12-22T01:06:55;96471.03;;;0.58;53.54
83152;BME280;73381;58.502;8.624;2023-12-22T01:10:06;96444.75;;;0.35;54.20
83152;BME280;73381;58.502;8.624;2023-12-22T01:13:11;96473.56;;;0.50;54.23
83152;BME280;73381;58.502;8.624;2023-12-22T01:16:21;96467.66;;;0.66;54.05
83152;BME280;73381;58.502;8.624;2023-12-22T01:19:26;96480.63;;;0.66;53.46
83152;BME280;73381;58.502;8.624;2023-12-22T01:22:30;96460.88;;;0.73;53.29
83152;BME280;73381;58.502;8.624;2023-12-22T01:25:32;96485.22;;;0.72;53.11
83152;BME280;73381;58.502;8.624;2023-12-22T01:28:37;96382.97;;;0.13;52.62
83152;BME280;73381;58.502;8.624;2023-12-22T01:31:41;96435.25;;;0.44;53.08
83152;BME280;73381;58.502;8.624;2023-12-22T01:34:44;96415.16;;;0.20;52.69
83152;BME280;73381;58.502;8.624;2023-12-22T01:37:48;96365.53;;;-0.03;53.39
83152;BME280;73381;58.502;8.624;2023-12-22T01:40:52;96435.19;;;0.36;54.15
83152;BME280;73381;58.502;8.624;2023-12-22T01:43:57;96521.78;;;0.78;54.12
83152;BME280;73381;58.502;8.624;2023-12-22T01:47:00;96507.00;;;0.79;52.93
83152;BME280;73381;58.502;8.624;2023-12-22T01:50:07;96517.72;;;0.84;54.29
83152;BME280;73381;58.502;8.624;2023-12-22T01:53:19;96512.53;;;0.84;52.44
83152;BME280;73381;58.502;8.624;2023-12-22T01:56:29;96524.00;;;0.99;52.57
83152;BME280;73381;58.502;8.624;2023-12-22T01:59:38;96523.38;;;1.05;52.25
83152;BME280;73381;58.502;8.624;2023-12-22T02:02:43;96528.91;;;1.02;52.13
83152;BME280;73381;58.502;8.624;2023-12-22T02:05:50;96527.25;;;1.01;52.51
83152;BME280;73381;58.502;8.624;2023-12-22T02:08:58;96461.22;;;0.44;53.40
83152;BME280;73381;58.502;8.624;2023-12-22T02:12:06;96526.31;;;0.76;53.12
83152;BME280;73381;58.502;8.624;2023-12-22T02:15:20;96537.91;;;0.90;53.26
83152;BME280;73381;58.502;8.624;2023-12-22T02:18:27;96462.56;;;0.30;53.08
83152;BME280;73381;58.502;8.624;2023-12-22T02:21:35;96582.47;;;1.03;52.55
83152;BME280;73381;58.502;8.624;2023-12-22T02:24:43;96567.22;;;1.00;54.81
83152;BME280;73381;58.502;8.624;2023-12-22T02:27:53;96506.50;;;0.49;53.89
83152;BME280;73381;58.502;8.624;2023-12-22T02:31:08;96507.53;;;0.56;53.50
83152;BME280;73381;58.502;8.624;2023-12-22T02:34:14;96478.69;;;0.42;54.11
83152;BME280;73381;58.502;8.624;2023-12-22T02:37:23;96567.50;;;0.97;53.07
83152;BME280;73381;58.502;8.624;2023-12-22T02:40:27;96577.75;;;0.99;52.97
83152;BME280;73381;58.502;8.624;2023-12-22T02:43:31;96568.63;;;0.95;55.37
83152;BME280;73381;58.502;8.624;2023-12-22T02:46:38;96570.06;;;0.89;53.22
83152;BME280;73381;58.502;8.624;2023-12-22T02:49:41;96530.66;;;0.50;55.05
83152;BME280;73381;58.502;8.624;2023-12-22T02:52:44;96583.75;;;0.99;53.72
83152;BME280;73381;58.502;8.624;2023-12-22T02:55:52;96565.16;;;0.86;53.70
83152;BME280;73381;58.502;8.624;2023-12-22T02:58:58;96623.50;;;1.17;53.17
83152;BME280;73381;58.502;8.624;2023-12-22T03:02:03;96619.44;;;1.23;52.37
83152;BME280;73381;58.502;8.624;2023-12-22T03:05:15;96615.84;;;1.16;52.22
83152;BME280;73381;58.502;8.624;2023-12-22T03:08:22;96557.50;;;0.84;53.06
83152;BME280;73381;58.502;8.624;2023-12-22T03:11:33;96521.72;;;0.44;54.28
83152;BME280;73381;58.502;8.624;2023-12-22T03:14:38;96522.59;;;0.35;52.87
83152;BME280;73381;58.502;8.624;2023-12-22T03:17:50;96647.47;;;1.11;53.19
83152;BME280;73381;58.502;8.624;2023-12-22T03:20:56;96678.38;;;1.14;52.99
83152;BME280;73381;58.502;8.624;2023-12-22T03:24:01;96597.44;;;0.83;53.33
83152;BME280;73381;58.502;8.624;2023-12-22T03:27:09;96525.97;;;0.10;54.25
83152;BME280;73381;58.502;8.624;2023-12-22T03:30:14;96634.91;;;0.81;54.35
83152;BME280;73381;58.502;8.624;2023-12-22T03:33:19;96661.06;;;1.05;53.57
83152;BME280;73381;58.502;8.624;2023-12-22T03:36:22;96711.19;;;1.15;54.15
83152;BME280;73381;58.502;8.624;2023-12-22T03:39:32;96676.59;;;1.15;53.73
83152;BME280;73381;58.502;8.624;2023-12-22T03:42:41;96696.44;;;1.24;53.74
83152;BME280;73381;58.502;8.624;2023-12-22T03:45:47;96694.81;;;1.23;54.22
83152;BME280;73381;58.502;8.624;2023-12-22T03:48:51;96622.59;;;0.83;54.50
83152;BME280;73381;58.502;8.624;2023-12-22T03:51:54;96694.13;;;1.13;54.89
83152;BME280;73381;58.502;8.624;2023-12-22T03:54:57;96705.22;;;1.23;54.05
83152;BME280;73381;58.502;8.624;2023-12-22T03:58:03;96712.19;;;1.23;53.35
83152;BME280;73381;58.502;8.624;2023-12-22T04:01:08;96710.06;;;1.18;55.40
83152;BME280;73381;58.502;8.624;2023-12-22T04:04:13;96708.78;;;1.22;53.12
83152;BME280;73381;58.502;8.624;2023-12-22T04:07:16;96672.00;;;0.91;54.08
83152;BME280;73381;58.502;8.624;2023-12-22T04:10:24;96738.34;;;1.21;54.02
83152;BME280;73381;58.502;8.624;2023-12-22T04:13:32;96680.25;;;0.86;53.92
83152;BME280;73381;58.502;8.624;2023-12-22T04:16:40;96754.34;;;1.34;52.90
83152;BME280;73381;58.502;8.624;2023-12-22T04:19:44;96717.38;;;1.23;54.15
83152;BME280;73381;58.502;8.624;2023-12-22T04:22:47;96716.09;;;1.01;54.44
83152;BME280;73381;58.502;8.624;2023-12-22T04:25:54;96687.06;;;0.70;54.66
83152;BME280;73381;58.502;8.624;2023-12-22T04:28:59;96773.81;;;1.12;54.73
83152;BME280;73381;58.502;8.624;2023-12-22T04:32:04;96706.28;;;0.95;53.82
83152;BME280;73381;58.502;8.624;2023-12-22T04:35:07;96777.81;;;1.25;53.60
83152;BME280;73381;58.502;8.624;2023-12-22T04:38:14;96771.31;;;1.21;53.86
83152;BME280;73381;58.502;8.624;2023-12-22T04:41:23;96770.19;;;1.23;54.08
83152;BME280;73381;58.502;8.624;2023-12-22T04:44:31;96782.88;;;1.08;54.88
83152;BME280;73381;58.502;8.624;2023-12-22T04:47:33;96759.34;;;0.92;53.68
83152;BME280;73381;58.502;8.624;2023-12-22T04:50:36;96788.22;;;1.07;53.29
83152;BME280;73381;58.502;8.624;2023-12-22T04:53:39;96733.53;;;0.73;53.14
83152;BME280;73381;58.502;8.624;2023-12-22T04:56:43;96797.59;;;1.17;51.71
83152;BME280;73381;58.502;8.624;2023-12-22T04:59:47;96840.50;;;1.22;50.76
83152;BME280;73381;58.502;8.624;2023-12-22T05:02:52;96724.94;;;0.72;50.27
83152;BME280;73381;58.502;8.624;2023-12-22T05:05:57;96797.09;;;1.14;51.80
83152;BME280;73381;58.502;8.624;2023-12-22T05:09:03;96835.38;;;1.12;50.96
83152;BME280;73381;58.502;8.624;2023-12-22T05:12:07;96783.09;;;0.79;52.22
83152;BME280;73381;58.502;8.624;2023-12-22T05:15:15;96804.69;;;0.98;51.06
83152;BME280;73381;58.502;8.624;2023-12-22T05:18:18;96811.91;;;1.04;50.39
83152;BME280;73381;58.502;8.624;2023-12-22T05:21:27;96806.78;;;0.94;51.47
83152;BME280;73381;58.502;8.624;2023-12-22T05:24:32;96837.28;;;0.92;51.64
83152;BME280;73381;58.502;8.624;2023-12-22T05:27:40;96828.16;;;0.88;50.75
83152;BME280;73381;58.502;8.624;2023-12-22T05:30:47;96825.94;;;0.93;51.57
83152;BME280;73381;58.502;8.624;2023-12-22T05:33:51;96842.13;;;0.87;50.54
83152;BME280;73381;58.502;8.624;2023-12-22T05:36:57;96872.47;;;0.86;51.27
83152;BME280;73381;58.502;8.624;2023-12-22T05:40:00;96849.81;;;0.97;50.22
83152;BME280;73381;58.502;8.624;2023-12-22T05:43:05;96784.69;;;0.45;50.34
83152;BME280;73381;58.502;8.624;2023-12-22T05:46:12;96815.00;;;0.44;50.22
83152;BME280;73381;58.502;8.624;2023-12-22T05:49:18;96867.06;;;0.70;50.22
83152;BME280;73381;58.502;8.624;2023-12-22T05:52:22;96828.81;;;0.45;50.30
83152;BME280;73381;58.502;8.624;2023-12-22T05:55:25;96880.16;;;0.78;50.86
83152;BME280;73381;58.502;8.624;2023-12-22T05:58:32;96890.09;;;0.83;50.29
83152;BME280;73381;58.502;8.624;2023-12-22T06:01:39;96916.22;;;0.81;49.84
83152;BME280;73381;58.502;8.624;2023-12-22T06:04:47;96853.31;;;0.33;50.24
83152;BME280;73381;58.502;8.624;2023-12-22T06:07:52;96926.78;;;0.70;51.00
83152;BME280;73381;58.502;8.624;2023-12-22T06:11:01;96919.22;;;0.49;51.22
83152;BME280;73381;58.502;8.624;2023-12-22T06:14:11;96941.03;;;0.66;50.12
83152;BME280;73381;58.502;8.624;2023-12-22T06:17:20;96976.81;;;0.72;50.22
83152;BME280;73381;58.502;8.624;2023-12-22T06:20:23;96966.16;;;0.66;50.42
83152;BME280;73381;58.502;8.624;2023-12-22T06:23:30;96933.50;;;0.73;49.67
83152;BME280;73381;58.502;8.624;2023-12-22T06:26:36;96982.16;;;0.71;49.80
83152;BME280;73381;58.502;8.624;2023-12-22T06:29:45;96995.31;;;0.59;50.46
83152;BME280;73381;58.502;8.624;2023-12-22T06:32:52;96944.38;;;0.49;50.75
83152;BME280;73381;58.502;8.624;2023-12-22T06:35:57;96944.81;;;0.35;50.50
83152;BME280;73381;58.502;8.624;2023-12-22T06:39:05;96972.78;;;0.50;49.25
83152;BME280;73381;58.502;8.624;2023-12-22T06:42:09;96983.00;;;0.52;49.37
83152;BME280;73381;58.502;8.624;2023-12-22T06:45:14;96915.94;;;0.01;50.80
83152;BME280;73381;58.502;8.624;2023-12-22T06:48:19;96988.50;;;0.39;51.63
83152;BME280;73381;58.502;8.624;2023-12-22T06:51:23;97024.56;;;0.42;51.14
83152;BME280;73381;58.502;8.624;2023-12-22T06:54:35;96938.19;;;-0.07;50.12
83152;BME280;73381;58.502;8.624;2023-12-22T06:57:40;96980.84;;;0.38;50.90
83152;BME280;73381;58.502;8.624;2023-12-22T07:00:46;96946.22;;;0.10;49.81
83152;BME280;73381;58.502;8.624;2023-12-22T07:03:51;97006.38;;;0.42;51.01
83152;BME280;73381;58.502;8.624;2023-12-22T07:06:53;97018.00;;;0.48;50.23
83152;BME280;73381;58.502;8.624;2023-12-22T07:09:59;96999.31;;;0.44;50.64
83152;BME280;73381;58.502;8.624;2023-12-22T07:13:01;97025.38;;;0.62;48.30
83152;BME280;73381;58.502;8.624;2023-12-22T07:16:04;97049.13;;;0.67;47.91
83152;BME280;73381;58.502;8.624;2023-12-22T07:19:09;97022.78;;;0.52;49.66
83152;BME280;73381;58.502;8.624;2023-12-22T07:22:15;97059.25;;;0.61;48.98
83152;BME280;73381;58.502;8.624;2023-12-22T07:25:19;97065.94;;;0.63;47.72
83152;BME280;73381;58.502;8.624;2023-12-22T07:28:24;97069.06;;;0.67;48.14
83152;BME280;73381;58.502;8.624;2023-12-22T07:31:30;97052.72;;;0.47;49.03
83152;BME280;73381;58.502;8.624;2023-12-22T07:34:35;97056.13;;;0.47;48.93
83152;BME280;73381;58.502;8.624;2023-12-22T07:37:42;97093.16;;;0.49;48.77
83152;BME280;73381;58.502;8.624;2023-12-22T07:40:49;97081.81;;;0.50;49.74
83152;BME280;73381;58.502;8.624;2023-12-22T07:43:53;97042.75;;;0.23;48.27
83152;BME280;73381;58.502;8.624;2023-12-22T07:46:58;97120.34;;;0.45;48.88
83152;BME280;73381;58.502;8.624;2023-12-22T07:50:08;97106.94;;;0.40;48.82
83152;BME280;73381;58.502;8.624;2023-12-22T07:53:12;97142.59;;;0.38;48.60
83152;BME280;73381;58.502;8.624;2023-12-22T07:56:17;97149.16;;;0.33;48.21
83152;BME280;73381;58.502;8.624;2023-12-22T07:59:20;97119.09;;;0.20;48.19
83152;BME280;73381;58.502;8.624;2023-12-22T08:02:32;97139.31;;;0.26;48.27
83152;BME280;73381;58.502;8.624;2023-12-22T08:05:37;97144.09;;;0.21;48.49
83152;BME280;73381;58.502;8.624;2023-12-22T08:08:40;97140.50;;;0.13;49.07
83152;BME280;73381;58.502;8.624;2023-12-22T08:11:45;97179.03;;;0.08;47.51
83152;BME280;73381;58.502;8.624;2023-12-22T08:14:49;97158.00;;;0.01;47.86
83152;BME280;73381;58.502;8.624;2023-12-22T08:17:52;97147.72;;;-0.01;47.60
83152;BME280;73381;58.502;8.624;2023-12-22T08:20:56;97195.28;;;0.10;47.46
83152;BME280;73381;58.502;8.624;2023-12-22T08:23:59;97164.06;;;-0.19;48.30
83152;BME280;73381;58.502;8.624;2023-12-22T08:27:02;97135.75;;;-0.32;48.96
83152;BME280;73381;58.502;8.624;2023-12-22T08:30:08;97143.31;;;-0.19;47.06
83152;BME280;73381;58.502;8.624;2023-12-22T08:33:10;97174.25;;;0.03;47.32
83152;BME280;73381;58.502;8.624;2023-12-22T08:36:16;97184.63;;;0.03;47.51
83152;BME280;73381;58.502;8.624;2023-12-22T08:39:20;97200.56;;;-0.02;47.82
83152;BME280;73381;58.502;8.624;2023-12-22T08:42:23;97195.72;;;-0.16;50.77
83152;BME280;73381;58.502;8.624;2023-12-22T08:45:26;97185.47;;;-0.27;48.95
83152;BME280;73381;58.502;8.624;2023-12-22T08:48:33;97208.59;;;-0.05;48.28
83152;BME280;73381;58.502;8.624;2023-12-22T08:51:40;97213.53;;;-0.02;48.18
83152;BME280;73381;58.502;8.624;2023-12-22T08:54:43;97192.97;;;-0.24;49.60
83152;BME280;73381;58.502;8.624;2023-12-22T08:57:48;97242.31;;;-0.05;47.92
83152;BME280;73381;58.502;8.624;2023-12-22T09:01:01;97240.56;;;-0.04;48.00
83152;BME280;73381;58.502;8.624;2023-12-22T09:04:06;97243.00;;;-0.03;47.84
83152;BME280;73381;58.502;8.624;2023-12-22T09:07:18;97237.28;;;-0.06;47.62
83152;BME280;73381;58.502;8.624;2023-12-22T09:10:21;97251.59;;;-0.12;48.52
83152;BME280;73381;58.502;8.624;2023-12-22T09:13:25;97250.19;;;-0.16;49.34
83152;BME280;73381;58.502;8.624;2023-12-22T09:16:29;97239.81;;;-0.16;47.89
83152;BME280;73381;58.502;8.624;2023-12-22T09:19:35;97252.34;;;-0.21;48.29
83152;BME280;73381;58.502;8.624;2023-12-22T09:22:47;97269.88;;;-0.13;47.50
83152;BME280;73381;58.502;8.624;2023-12-22T09:25:53;97268.94;;;-0.12;47.81
83152;BME280;73381;58.502;8.624;2023-12-22T09:28:57;97288.59;;;-0.10;46.74
83152;BME280;73381;58.502;8.624;2023-12-22T09:32:03;97283.66;;;-0.13;46.59
83152;BME280;73381;58.502;8.624;2023-12-22T09:35:07;97295.41;;;-0.09;45.43
83152;BME280;73381;58.502;8.624;2023-12-22T09:38:12;97289.69;;;-0.03;45.82
83152;BME280;73381;58.502;8.624;2023-12-22T09:41:17;97271.19;;;-0.19;46.66
83152;BME280;73381;58.502;8.624;2023-12-22T09:44:33;97280.13;;;-0.12;45.75
83152;BME280;73381;58.502;8.624;2023-12-22T09:47:38;97298.00;;;-0.09;45.51
83152;BME280;73381;58.502;8.624;2023-12-22T09:50:45;97282.88;;;-0.04;44.83
83152;BME280;73381;58.502;8.624;2023-12-22T09:53:52;97306.06;;;-0.12;46.35
83152;BME280;73381;58.502;8.624;2023-12-22T09:56:57;97289.41;;;-0.09;44.75
83152;BME280;73381;58.502;8.624;2023-12-22T10:00:18;97280.31;;;-0.24;44.97
83152;BME280;73381;58.502;8.624;2023-12-22T10:03:24;97297.31;;;-0.11;45.62
83152;BME280;73381;58.502;8.624;2023-12-22T10:06:28;97311.25;;;-0.12;44.85
83152;BME280;73381;58.502;8.624;2023-12-22T10:09:33;97211.00;;;-0.74;45.41
83152;BME280;73381;58.502;8.624;2023-12-22T10:12:39;97308.78;;;-0.13;44.86
83152;BME280;73381;58.502;8.624;2023-12-22T10:15:46;97310.56;;;-0.14;43.93
83152;BME280;73381;58.502;8.624;2023-12-22T10:18:54;97300.38;;;-0.26;45.09
83152;BME280;73381;58.502;8.624;2023-12-22T10:22:01;97311.06;;;-0.20;44.90
83152;BME280;73381;58.502;8.624;2023-12-22T10:25:07;97332.47;;;-0.18;45.22
83152;BME280;73381;58.502;8.624;2023-12-22T10:28:11;97331.09;;;-0.22;45.41
83152;BME280;73381;58.502;8.624;2023-12-22T10:31:15;97338.22;;;-0.14;44.61
83152;BME280;73381;58.502;8.624;2023-12-22T10:34:20;97328.88;;;-0.06;43.55
83152;BME280;73381;58.502;8.624;2023-12-22T10:37:26;97320.78;;;-0.12;44.46
83152;BME280;73381;58.502;8.624;2023-12-22T10:40:32;97321.03;;;-0.15;44.77
83152;BME280;73381;58.502;8.624;2023-12-22T10:43:40;97293.28;;;-0.24;43.98
83152;BME280;73381;58.502;8.624;2023-12-22T10:46:45;97328.13;;;-0.17;44.43
83152;BME280;73381;58.502;8.624;2023-12-22T10:49:50;97333.91;;;-0.14;43.31
83152;BME280;73381;58.502;8.624;2023-12-22T10:52:55;97329.19;;;-0.20;44.95
83152;BME280;73381;58.502;8.624;2023-12-22T10:56:04;97309.72;;;-0.35;43.57
83152;BME280;73381;58.502;8.624;2023-12-22T10:59:12;97327.44;;;-0.19;43.92
83152;BME280;73381;58.502;8.624;2023-12-22T11:02:16;97328.50;;;-0.22;44.46
83152;BME280;73381;58.502;8.624;2023-12-22T11:05:22;97340.53;;;-0.21;43.21
83152;BME280;73381;58.502;8.624;2023-12-22T11:08:28;97338.69;;;-0.09;42.51
83152;BME280;73381;58.502;8.624;2023-12-22T11:11:42;97329.69;;;-0.05;41.61
83152;BME280;73381;58.502;8.624;2023-12-22T11:14:46;97334.06;;;-0.06;42.24
83152;BME280;73381;58.502;8.624;2023-12-22T11:17:52;97329.81;;;-0.07;43.10
83152;BME280;73381;58.502;8.624;2023-12-22T11:20:58;97341.41;;;-0.11;41.69
83152;BME280;73381;58.502;8.624;2023-12-22T11:24:03;97328.94;;;-0.17;41.50
83152;BME280;73381;58.502;8.624;2023-12-22T11:27:13;97352.22;;;-0.06;43.27
83152;BME280;73381;58.502;8.624;2023-12-22T11:30:18;97347.16;;;-0.07;41.37
83152;BME280;73381;58.502;8.624;2023-12-22T11:33:26;97355.81;;;-0.18;41.93
83152;BME280;73381;58.502;8.624;2023-12-22T11:36:33;97360.00;;;-0.06;41.77
83152;BME280;73381;58.502;8.624;2023-12-22T11:39:39;97356.19;;;-0.02;40.79
83152;BME280;73381;58.502;8.624;2023-12-22T11:42:49;97310.28;;;-0.32;40.42
83152;BME280;73381;58.502;8.624;2023-12-22T11:45:55;97354.38;;;-0.11;41.34
83152;BME280;73381;58.502;8.624;2023-12-22T11:48:57;97337.19;;;-0.12;41.25
83152;BME280;73381;58.502;8.624;2023-12-22T11:52:09;97374.88;;;-0.08;39.23
83152;BME280;73381;58.502;8.624;2023-12-22T11:55:12;97356.84;;;-0.09;39.51
83152;BME280;73381;58.502;8.624;2023-12-22T11:58:38;97354.31;;;0.01;39.06
83152;BME280;73381;58.502;8.624;2023-12-22T12:01:41;97337.34;;;-0.04;38.81
83152;BME280;73381;58.502;8.624;2023-12-22T12:04:47;97337.53;;;0.05;38.27
83152;BME280;73381;58.502;8.624;2023-12-22T12:07:52;97320.53;;;-0.09;38.51
83152;BME280;73381;58.502;8.624;2023-12-22T12:10:56;97330.16;;;0.00;37.80
83152;BME280;73381;58.502;8.624;2023-12-22T12:14:07;97334.94;;;0.05;38.00
83152;BME280;73381;58.502;8.624;2023-12-22T12:17:18;97334.50;;;-0.01;38.61
83152;BME280;73381;58.502;8.624;2023-12-22T12:20:21;97245.78;;;-0.55;38.14
83152;BME280;73381;58.502;8.624;2023-12-22T12:23:26;97374.84;;;0.13;35.44
83152;BME280;73381;58.502;8.624;2023-12-22T12:26:30;97351.59;;;0.02;35.06
83152;BME280;73381;58.502;8.624;2023-12-22T12:29:36;97300.00;;;-0.22;36.65
83152;BME280;73381;58.502;8.624;2023-12-22T12:32:42;97360.44;;;-0.01;36.54
83152;BME280;73381;58.502;8.624;2023-12-22T12:35:46;97366.47;;;0.00;35.90
83152;BME280;73381;58.502;8.624;2023-12-22T12:38:55;97301.19;;;-0.47;36.12
83152;BME280;73381;58.502;8.624;2023-12-22T12:42:00;97296.47;;;-0.42;35.13
83152;BME280;73381;58.502;8.624;2023-12-22T12:45:11;97369.94;;;-0.11;36.76
83152;BME280;73381;58.502;8.624;2023-12-22T12:48:17;97372.28;;;-0.08;34.54
83152;BME280;73381;58.502;8.624;2023-12-22T12:51:19;97379.31;;;0.02;33.77
83152;BME280;73381;58.502;8.624;2023-12-22T12:54:22;97377.47;;;-0.08;35.61
83152;BME280;73381;58.502;8.624;2023-12-22T12:57:27;97399.59;;;-0.04;33.94
83152;BME280;73381;58.502;8.624;2023-12-22T13:00:33;97383.09;;;-0.03;33.10
83152;BME280;73381;58.502;8.624;2023-12-22T13:03:53;97398.91;;;-0.06;32.58
83152;BME280;73381;58.502;8.624;2023-12-22T13:06:57;97399.25;;;0.01;31.79
83152;BME280;73381;58.502;8.624;2023-12-22T13:10:01;97383.53;;;-0.18;32.15
83152;BME280;73381;58.502;8.624;2023-12-22T13:13:06;97409.16;;;-0.04;32.16
83152;BME280;73381;58.502;8.624;2023-12-22T13:16:13;97410.84;;;-0.14;32.40
83152;BME280;73381;58.502;8.624;2023-12-22T13:19:16;97425.59;;;-0.15;32.99
83152;BME280;73381;58.502;8.624;2023-12-22T13:22:19;97438.94;;;-0.19;32.09
83152;BME280;73381;58.502;8.624;2023-12-22T13:25:25;97405.97;;;-0.28;33.30
83152;BME280;73381;58.502;8.624;2023-12-22T13:28:29;97410.81;;;-0.24;32.69
83152;BME280;73381;58.502;8.624;2023-12-22T13:31:33;97415.34;;;-0.37;34.80
83152;BME280;73381;58.502;8.624;2023-12-22T13:34:39;97436.56;;;-0.43;33.16
83152;BME280;73381;58.502;8.624;2023-12-22T13:37:49;97411.13;;;-0.49;33.49
83152;BME280;73381;58.502;8.624;2023-12-22T13:40:55;97423.72;;;-0.45;33.43
83152;BME280;73381;58.502;8.624;2023-12-22T13:44:03;97367.22;;;-0.94;35.07
83152;BME280;73381;58.502;8.624;2023-12-22T13:47:10;97448.66;;;-0.65;35.72
83152;BME280;73381;58.502;8.624;2023-12-22T13:50:14;97442.16;;;-0.59;34.02
83152;BME280;73381;58.502;8.624;2023-12-22T13:53:17;97370.09;;;-1.08;34.56
83152;BME280;73381;58.502;8.624;2023-12-22T13:56:22;97453.47;;;-0.71;34.59
83152;BME280;73381;58.502;8.624;2023-12-22T13:59:33;97470.34;;;-0.77;35.31
83152;BME280;73381;58.502;8.624;2023-12-22T14:02:39;97460.59;;;-0.84;34.69
83152;BME280;73381;58.502;8.624;2023-12-22T14:05:42;97451.06;;;-0.84;34.75
83152;BME280;73381;58.502;8.624;2023-12-22T14:08:44;97457.41;;;-0.88;35.12
83152;BME280;73381;58.502;8.624;2023-12-22T14:11:48;97485.91;;;-0.88;35.02
83152;BME280;73381;58.502;8.624;2023-12-22T14:15:03;97461.75;;;-0.88;35.95
83152;BME280;73381;58.502;8.624;2023-12-22T14:18:09;97477.66;;;-0.93;34.61
83152;BME280;73381;58.502;8.624;2023-12-22T14:21:12;97461.19;;;-1.03;34.71
83152;BME280;73381;58.502;8.624;2023-12-22T14:24:16;97520.06;;;-0.94;34.56
83152;BME280;73381;58.502;8.624;2023-12-22T14:27:22;97511.81;;;-1.10;37.00
83152;BME280;73381;58.502;8.624;2023-12-22T14:30:27;97434.72;;;-1.52;35.26
83152;BME280;73381;58.502;8.624;2023-12-22T14:33:31;97535.59;;;-0.94;33.86
83152;BME280;73381;58.502;8.624;2023-12-22T14:36:34;97534.41;;;-1.01;35.88
83152;BME280;73381;58.502;8.624;2023-12-22T14:39:36;97543.69;;;-0.99;34.62
83152;BME280;73381;58.502;8.624;2023-12-22T14:42:40;97534.06;;;-1.08;35.46
83152;BME280;73381;58.502;8.624;2023-12-22T14:45:43;97537.47;;;-1.07;34.37
83152;BME280;73381;58.502;8.624;2023-12-22T14:48:48;97565.38;;;-1.11;34.59
83152;BME280;73381;58.502;8.624;2023-12-22T14:51:51;97531.59;;;-1.21;35.33
83152;BME280;73381;58.502;8.624;2023-12-22T14:54:55;97469.97;;;-1.73;35.28
83152;BME280;73381;58.502;8.624;2023-12-22T14:57:58;97552.03;;;-1.29;36.11
83152;BME280;73381;58.502;8.624;2023-12-22T15:01:00;97561.22;;;-1.36;36.28
83152;BME280;73381;58.502;8.624;2023-12-22T15:04:04;97549.53;;;-1.41;35.30
83152;BME280;73381;58.502;8.624;2023-12-22T15:07:15;97565.19;;;-1.43;36.02
83152;BME280;73381;58.502;8.624;2023-12-22T15:10:17;97579.19;;;-1.45;36.36
83152;BME280;73381;58.502;8.624;2023-12-22T15:13:19;97582.59;;;-1.45;36.28
83152;BME280;73381;58.502;8.624;2023-12-22T15:16:21;97594.66;;;-1.57;37.81
83152;BME280;73381;58.502;8.624;2023-12-22T15:19:28;97528.06;;;-2.01;36.61
83152;BME280;73381;58.502;8.624;2023-12-22T15:22:31;97551.41;;;-1.90;37.32
83152;BME280;73381;58.502;8.624;2023-12-22T15:25:34;97607.13;;;-1.62;36.97
83152;BME280;73381;58.502;8.624;2023-12-22T15:28:38;97596.72;;;-1.73;37.22
83152;BME280;73381;58.502;8.624;2023-12-22T15:31:42;97618.25;;;-1.72;38.11
83152;BME280;73381;58.502;8.624;2023-12-22T15:34:47;97621.88;;;-1.75;37.84
83152;BME280;73381;58.502;8.624;2023-12-22T15:37:49;97624.88;;;-1.68;36.94
83152;BME280;73381;58.502;8.624;2023-12-22T15:40:52;97629.53;;;-1.73;38.82
83152;BME280;73381;58.502;8.624;2023-12-22T15:43:58;97647.97;;;-1.78;39.15
83152;BME280;73381;58.502;8.624;2023-12-22T15:47:02;97637.53;;;-1.76;37.12
83152;BME280;73381;58.502;8.624;2023-12-22T15:50:08;97635.81;;;-1.89;38.16
83152;BME280;73381;58.502;8.624;2023-12-22T15:53:13;97631.50;;;-2.01;37.72
83152;BME280;73381;58.502;8.624;2023-12-22T15:56:16;97657.31;;;-1.88;37.95
83152;BME280;73381;58.502;8.624;2023-12-22T15:59:20;97649.19;;;-1.95;38.22
83152;BME280;73381;58.502;8.624;2023-12-22T16:02:22;97669.38;;;-2.00;39.00
83152;BME280;73381;58.502;8.624;2023-12-22T16:05:29;97660.88;;;-2.02;39.03
83152;BME280;73381;58.502;8.624;2023-12-22T16:08:35;97608.19;;;-2.49;38.87
83152;BME280;73381;58.502;8.624;2023-12-22T16:11:38;97666.31;;;-2.18;38.24
83152;BME280;73381;58.502;8.624;2023-12-22T16:14:42;97677.25;;;-2.14;38.02
83152;BME280;73381;58.502;8.624;2023-12-22T16:17:47;97675.72;;;-2.17;38.46
83152;BME280;73381;58.502;8.624;2023-12-22T16:20:53;97592.81;;;-2.76;39.53
83152;BME280;73381;58.502;8.624;2023-12-22T16:23:55;97671.09;;;-2.24;38.73
83152;BME280;73381;58.502;8.624;2023-12-22T16:26:58;97682.16;;;-2.22;38.44
83152;BME280;73381;58.502;8.624;2023-12-22T16:30:00;97693.28;;;-2.09;37.94